Time;durP1;ratioP1;P1;durP2;ratioP2;P2;SDS_P1;SDS_P2;PMS_P1;PMS_P2;Temp;Humidity;BMP_temperature;BMP_pressure;BME280_temperature;BME280_humidity;BME280_pressure;Samples;Min_cycle;Max_cycle;Signal;HPM_P1;HPM_P2
2021/10/04 00:02:07;;;;;;;0.52;0.08;;;23.90;46.30;;;;;;5043229;28;20078;-63
2021/10/04 00:04:34;;;;;;;0.85;0.00;;;23.90;46.20;;;;;;5042524;28;20044;-62
2021/10/04 00:07:02;;;;;;;0.17;0.00;;;23.90;46.20;;;;;;5036347;28;20037;-61
2021/10/04 00:09:30;;;;;;;0.10;0.00;;;24.00;46.20;;;;;;5039943;28;20055;-61
2021/10/04 00:11:58;;;;;;;1.10;0.00;;;24.00;46.10;;;;;;5039041;28;20041;-61
2021/10/04 00:14:25;;;;;;;1.30;0.00;;;24.00;46.10;;;;;;5037870;28;20496;-61
2021/10/04 00:16:54;;;;;;;2.47;0.10;;;24.00;46.10;;;;;;5043860;28;20050;-61
2021/10/04 00:19:21;;;;;;;3.33;0.00;;;24.00;46.00;;;;;;5036700;28;20147;-63
2021/10/04 00:21:49;;;;;;;0.68;0.55;;;24.10;46.10;;;;;;5042988;28;20068;-63
2021/10/04 00:24:16;;;;;;;0.28;0.00;;;24.10;46.60;;;;;;5035881;28;20037;-63
2021/10/04 00:26:44;;;;;;;0.10;0.00;;;24.10;45.90;;;;;;5037942;28;20049;-64
2021/10/04 00:29:11;;;;;;;0.20;0.00;;;24.10;45.90;;;;;;5046111;28;20761;-63
2021/10/04 00:31:38;;;;;;;0.00;0.00;;;24.10;45.80;;;;;;5046138;28;20060;-63
2021/10/04 00:34:05;;;;;;;0.00;0.00;;;24.20;45.90;;;;;;5041790;28;20048;-63
2021/10/04 00:36:32;;;;;;;0.30;0.00;;;24.20;45.80;;;;;;5033457;28;20041;-62
2021/10/04 00:38:59;;;;;;;0.10;0.00;;;24.20;45.70;;;;;;5039452;28;20041;-63
2021/10/04 00:41:26;;;;;;;0.00;0.00;;;24.20;45.70;;;;;;5032434;28;20520;-60
2021/10/04 00:43:56;;;;;;;0.00;0.00;;;24.20;45.60;;;;;;5035729;28;20078;-59
2021/10/04 00:46:24;;;;;;;0.68;0.00;;;24.20;45.60;;;;;;5045088;28;20119;-60
2021/10/04 00:48:51;;;;;;;2.80;0.00;;;24.20;45.60;;;;;;5035296;28;20045;-60
2021/10/04 00:51:20;;;;;;;1.13;0.00;;;24.30;45.60;;;;;;5039839;28;20049;-60
2021/10/04 00:53:48;;;;;;;0.10;0.00;;;24.20;45.50;;;;;;5039938;28;20411;-61
2021/10/04 00:56:15;;;;;;;0.10;0.00;;;24.20;45.60;;;;;;5037478;28;20044;-59
2021/10/04 00:58:42;;;;;;;0.10;0.00;;;24.20;45.50;;;;;;5046291;28;20048;-60
2021/10/04 01:01:11;;;;;;;0.00;0.00;;;24.30;45.60;;;;;;5050447;28;20033;-60
2021/10/04 01:03:38;;;;;;;4.13;0.00;;;24.30;45.60;;;;;;5043296;28;20043;-60
2021/10/04 01:06:05;;;;;;;0.13;0.13;;;24.30;45.50;;;;;;5041111;28;20540;-62
2021/10/04 01:08:32;;;;;;;0.55;0.00;;;24.30;45.50;;;;;;5039984;28;20042;-60
2021/10/04 01:10:59;;;;;;;1.05;0.00;;;24.30;45.60;;;;;;5047108;28;20060;-61
2021/10/04 01:13:26;;;;;;;1.02;0.00;;;24.30;45.60;;;;;;5039841;28;20120;-61
2021/10/04 01:15:53;;;;;;;0.40;0.00;;;24.30;45.60;;;;;;5043375;28;20045;-60
2021/10/04 01:18:21;;;;;;;0.22;0.00;;;24.30;45.60;;;;;;5038720;28;20473;-61
2021/10/04 01:20:50;;;;;;;0.30;0.00;;;24.30;45.60;;;;;;5042090;28;20053;-61
2021/10/04 01:23:17;;;;;;;0.10;0.00;;;24.30;45.60;;;;;;5045700;28;20037;-61
2021/10/04 01:25:44;;;;;;;0.55;0.00;;;24.30;45.60;;;;;;5038281;28;20048;-62
2021/10/04 01:28:11;;;;;;;0.20;0.00;;;24.30;45.70;;;;;;5045009;28;20501;-61
2021/10/04 01:30:38;;;;;;;0.45;0.00;;;24.30;45.70;;;;;;5046485;28;20531;-61
2021/10/04 01:33:05;;;;;;;0.55;0.15;;;24.30;45.70;;;;;;5042691;28;20051;-62
2021/10/04 01:35:32;;;;;;;3.63;0.20;;;24.20;45.70;;;;;;5045257;28;20049;-62
2021/10/04 01:38:01;;;;;;;0.20;0.00;;;24.20;45.70;;;;;;5037322;28;20041;-61
2021/10/04 01:40:28;;;;;;;3.95;0.55;;;24.20;45.70;;;;;;5046463;28;20055;-62
2021/10/04 01:42:55;;;;;;;1.85;0.00;;;24.20;45.70;;;;;;5038025;28;20037;-61
2021/10/04 01:45:25;;;;;;;0.10;0.00;;;24.20;45.70;;;;;;5043227;28;20029;-61
2021/10/04 01:47:53;;;;;;;1.60;0.00;;;24.20;45.70;;;;;;5040938;28;20045;-61
2021/10/04 01:50:21;;;;;;;0.57;0.00;;;24.20;45.80;;;;;;5039889;28;20043;-61
2021/10/04 01:52:48;;;;;;;0.40;0.08;;;24.20;45.70;;;;;;5046947;28;20052;-61
2021/10/04 01:55:16;;;;;;;0.00;0.00;;;24.20;45.80;;;;;;5045503;28;20064;-61
2021/10/04 01:57:44;;;;;;;0.10;0.10;;;24.20;45.70;;;;;;5044314;28;20094;-61
2021/10/04 02:00:13;;;;;;;0.03;0.00;;;24.20;45.70;;;;;;5047292;28;20045;-61
2021/10/04 02:02:41;;;;;;;0.63;0.10;;;24.20;45.70;;;;;;5043960;28;20049;-60
2021/10/04 02:05:09;;;;;;;0.47;0.00;;;24.20;45.70;;;;;;5046742;28;20078;-61
2021/10/04 02:07:37;;;;;;;0.25;0.00;;;24.20;45.70;;;;;;5038112;28;20053;-61
2021/10/04 02:10:07;;;;;;;0.38;0.00;;;24.20;45.70;;;;;;5042752;28;20749;-59
2021/10/04 02:12:36;;;;;;;0.05;0.03;;;24.10;45.70;;;;;;5036689;28;20056;-59
2021/10/04 02:15:03;;;;;;;0.00;0.00;;;24.20;45.70;;;;;;5042533;28;20051;-59
2021/10/04 02:17:32;;;;;;;2.13;0.25;;;24.10;45.70;;;;;;5043422;28;20187;-59
2021/10/04 02:19:59;;;;;;;1.08;0.00;;;24.10;45.70;;;;;;5036684;28;20454;-59
2021/10/04 02:22:27;;;;;;;0.10;0.00;;;24.20;45.70;;;;;;5045946;28;20051;-60
2021/10/04 02:24:53;;;;;;;0.10;0.00;;;24.10;45.70;;;;;;5034744;28;20519;-60
2021/10/04 02:27:21;;;;;;;0.52;0.00;;;24.10;45.70;;;;;;5040836;28;20513;-59
2021/10/04 02:29:49;;;;;;;0.10;0.00;;;24.10;45.70;;;;;;5036709;28;20045;-61
2021/10/04 02:32:16;;;;;;;0.98;0.45;;;24.20;45.80;;;;;;5044093;28;20065;-61
2021/10/04 02:34:43;;;;;;;1.65;0.00;;;24.10;45.70;;;;;;5046068;28;20041;-61
2021/10/04 02:37:10;;;;;;;0.00;0.00;;;24.10;45.70;;;;;;5039563;28;20037;-61
2021/10/04 02:39:37;;;;;;;0.38;0.00;;;24.20;45.70;;;;;;5043678;28;20044;-62
2021/10/04 02:42:04;;;;;;;1.17;0.00;;;24.20;46.40;;;;;;5038690;28;20038;-61
2021/10/04 02:44:31;;;;;;;0.25;0.25;;;24.10;45.70;;;;;;5039118;28;20033;-61
2021/10/04 02:47:01;;;;;;;0.90;0.00;;;24.10;45.80;;;;;;5045287;28;20041;-62
2021/10/04 02:49:28;;;;;;;2.15;0.00;;;24.10;45.80;;;;;;5037998;28;20037;-61
2021/10/04 02:51:55;;;;;;;0.52;0.03;;;24.10;45.80;;;;;;5042781;28;20041;-61
2021/10/04 02:54:22;;;;;;;1.25;0.00;;;24.10;45.80;;;;;;5036590;28;20045;-62
2021/10/04 02:56:49;;;;;;;0.30;0.00;;;24.10;45.80;;;;;;5042019;28;20050;-61
2021/10/04 02:59:16;;;;;;;1.55;0.05;;;24.10;45.80;;;;;;5045120;28;20037;-60
2021/10/04 03:01:43;;;;;;;0.00;0.00;;;24.10;45.70;;;;;;5047191;28;20040;-61
2021/10/04 03:04:11;;;;;;;0.08;0.00;;;24.10;45.80;;;;;;5042793;28;20048;-61
2021/10/04 03:06:38;;;;;;;0.93;0.00;;;24.10;45.70;;;;;;5033514;28;20140;-61
2021/10/04 03:09:05;;;;;;;0.70;0.03;;;24.10;45.70;;;;;;5041594;28;20060;-61
2021/10/04 03:11:32;;;;;;;0.10;0.00;;;24.10;45.70;;;;;;5042995;28;20048;-63
2021/10/04 03:13:59;;;;;;;0.08;0.00;;;24.10;45.70;;;;;;5037612;28;20047;-62
2021/10/04 03:16:26;;;;;;;0.03;0.00;;;24.10;45.70;;;;;;5043476;28;20041;-61
2021/10/04 03:18:53;;;;;;;1.63;0.00;;;24.10;45.70;;;;;;5041462;28;20048;-61
2021/10/04 03:21:22;;;;;;;1.80;0.08;;;24.10;45.70;;;;;;5041367;28;20037;-62
2021/10/04 03:23:49;;;;;;;0.38;0.20;;;24.10;45.70;;;;;;5039382;28;20034;-62
2021/10/04 03:26:16;;;;;;;0.63;0.10;;;24.10;45.70;;;;;;5037750;28;20047;-62
2021/10/04 03:28:43;;;;;;;0.82;0.08;;;24.10;45.80;;;;;;5042813;28;20054;-61
2021/10/04 03:31:10;;;;;;;0.63;0.00;;;24.10;45.80;;;;;;5047706;28;20064;-61
2021/10/04 03:33:38;;;;;;;0.47;0.40;;;24.10;45.80;;;;;;5041183;28;20037;-62
2021/10/04 03:36:05;;;;;;;0.10;0.00;;;24.10;45.70;;;;;;5037298;28;20049;-61
2021/10/04 03:38:34;;;;;;;0.08;0.00;;;24.10;45.70;;;;;;5038367;28;20604;-60
2021/10/04 03:41:01;;;;;;;0.50;0.20;;;24.10;45.70;;;;;;5043574;28;20053;-61
2021/10/04 03:43:28;;;;;;;1.55;0.00;;;24.10;45.70;;;;;;5036384;28;20045;-62
2021/10/04 03:45:55;;;;;;;1.92;0.25;;;24.10;45.70;;;;;;5043967;28;20055;-61
2021/10/04 03:48:22;;;;;;;0.15;0.00;;;24.00;45.70;;;;;;5035214;28;20045;-62
2021/10/04 03:50:49;;;;;;;0.10;0.00;;;24.00;45.80;;;;;;5037776;28;20045;-62
2021/10/04 03:53:16;;;;;;;0.60;0.00;;;24.00;45.70;;;;;;5042962;28;20037;-61
2021/10/04 03:55:44;;;;;;;0.32;0.00;;;24.00;45.70;;;;;;5036454;28;20046;-61
2021/10/04 03:58:11;;;;;;;1.02;0.00;;;24.00;45.70;;;;;;5042650;28;20053;-62
2021/10/04 04:00:39;;;;;;;0.10;0.00;;;24.00;45.70;;;;;;5043958;28;20051;-62
2021/10/04 04:03:06;;;;;;;0.10;0.00;;;24.00;45.70;;;;;;5039897;28;20501;-61
2021/10/04 04:05:33;;;;;;;0.20;0.15;;;24.00;45.70;;;;;;5041686;28;20091;-62
2021/10/04 04:08:00;;;;;;;1.70;0.00;;;24.00;45.60;;;;;;5045825;28;20041;-63
2021/10/04 04:10:27;;;;;;;0.10;0.00;;;24.00;45.70;;;;;;5044894;28;20056;-62
2021/10/04 04:12:55;;;;;;;0.77;0.00;;;24.00;45.90;;;;;;5043056;28;20037;-62
2021/10/04 04:15:22;;;;;;;0.35;0.00;;;24.00;45.60;;;;;;5040369;28;20067;-61
2021/10/04 04:17:50;;;;;;;4.18;0.00;;;24.00;45.60;;;;;;5043735;28;20048;-62
2021/10/04 04:20:17;;;;;;;0.55;0.00;;;24.00;45.60;;;;;;5042640;28;20409;-62
2021/10/04 04:22:44;;;;;;;0.10;0.10;;;24.00;45.60;;;;;;5043692;28;20711;-61
2021/10/04 04:25:12;;;;;;;0.05;0.00;;;24.00;45.60;;;;;;5043334;28;20041;-62
2021/10/04 04:27:40;;;;;;;0.20;0.00;;;24.00;45.60;;;;;;5039167;28;20037;-61
2021/10/04 04:30:11;;;;;;;3.42;0.00;;;23.90;45.50;;;;;;5041500;28;20048;-61
2021/10/04 04:32:39;;;;;;;1.55;0.00;;;24.00;45.60;;;;;;5043140;28;20045;-61
2021/10/04 04:35:07;;;;;;;0.17;0.00;;;24.00;45.60;;;;;;5047700;28;20044;-61
2021/10/04 04:37:34;;;;;;;0.10;0.05;;;23.90;45.50;;;;;;5037652;28;20064;-61
2021/10/04 04:40:02;;;;;;;0.10;0.00;;;23.90;45.50;;;;;;5045759;28;20120;-62
2021/10/04 04:42:29;;;;;;;0.50;0.20;;;23.90;45.50;;;;;;5045449;28;20041;-62
2021/10/04 04:44:56;;;;;;;0.35;0.00;;;23.90;45.40;;;;;;5043976;28;20033;-61
2021/10/04 04:47:24;;;;;;;4.22;0.00;;;23.90;45.40;;;;;;5046847;28;20037;-62
2021/10/04 04:49:52;;;;;;;0.17;0.00;;;23.90;45.40;;;;;;5039758;28;20141;-62
2021/10/04 04:52:19;;;;;;;1.35;0.68;;;23.90;45.40;;;;;;5045361;28;20045;-60
2021/10/04 04:54:46;;;;;;;0.10;0.10;;;23.90;45.50;;;;;;5036935;28;20041;-62
2021/10/04 04:57:14;;;;;;;0.60;0.10;;;23.90;45.50;;;;;;5044091;28;20108;-59
2021/10/04 04:59:41;;;;;;;0.77;0.00;;;23.90;45.50;;;;;;5047344;28;20037;-63
2021/10/04 05:02:08;;;;;;;0.98;0.00;;;23.90;45.60;;;;;;5046000;28;20042;-63
2021/10/04 05:04:36;;;;;;;0.75;0.10;;;23.90;45.60;;;;;;5044436;28;20056;-62
2021/10/04 05:07:04;;;;;;;0.25;0.25;;;23.90;45.60;;;;;;5040091;28;20053;-63
2021/10/04 05:09:31;;;;;;;1.42;0.10;;;23.90;45.70;;;;;;5043201;28;20041;-63
2021/10/04 05:11:58;;;;;;;1.23;0.10;;;23.90;45.60;;;;;;5041697;28;20038;-62
2021/10/04 05:14:25;;;;;;;0.30;0.00;;;23.90;45.60;;;;;;5039612;28;20037;-61
2021/10/04 05:16:52;;;;;;;0.82;0.10;;;23.90;45.60;;;;;;5044641;28;20044;-62
2021/10/04 05:19:19;;;;;;;0.20;0.10;;;23.90;45.60;;;;;;5039644;28;20471;-62
2021/10/04 05:21:47;;;;;;;1.73;0.10;;;23.90;45.60;;;;;;5044374;28;20087;-62
2021/10/04 05:24:14;;;;;;;0.35;0.10;;;23.90;45.60;;;;;;5039523;28;20037;-62
2021/10/04 05:26:41;;;;;;;0.20;0.10;;;23.90;45.60;;;;;;5041493;28;20092;-61
2021/10/04 05:29:09;;;;;;;0.20;0.00;;;23.90;45.50;;;;;;5047385;28;20037;-62
2021/10/04 05:31:36;;;;;;;0.93;0.00;;;23.90;45.50;;;;;;5048308;28;20052;-63
2021/10/04 05:34:03;;;;;;;2.08;0.03;;;23.90;45.50;;;;;;5044717;28;20131;-61
2021/10/04 05:36:31;;;;;;;0.10;0.10;;;23.90;45.50;;;;;;5037735;28;20048;-61
2021/10/04 05:39:01;;;;;;;2.72;0.20;;;23.90;45.40;;;;;;5036697;28;20589;-61
2021/10/04 05:41:28;;;;;;;0.35;0.35;;;23.90;45.50;;;;;;5044677;28;20414;-60
2021/10/04 05:43:55;;;;;;;0.40;0.40;;;23.90;45.40;;;;;;5039416;28;20045;-60
2021/10/04 05:46:22;;;;;;;0.38;0.00;;;23.90;46.00;;;;;;5044214;28;20041;-62
2021/10/04 05:48:49;;;;;;;1.25;0.10;;;23.90;45.40;;;;;;5037741;28;20047;-62
2021/10/04 05:51:16;;;;;;;2.45;0.10;;;23.90;45.40;;;;;;5042062;28;20036;-61
2021/10/04 05:53:43;;;;;;;0.30;0.10;;;23.90;45.50;;;;;;5043186;28;20041;-61
2021/10/04 05:56:11;;;;;;;3.42;0.20;;;23.90;45.40;;;;;;5038222;28;20532;-61
2021/10/04 05:58:38;;;;;;;0.30;0.10;;;23.90;45.40;;;;;;5044430;28;20041;-61
2021/10/04 06:01:05;;;;;;;0.98;0.10;;;23.90;45.40;;;;;;5048952;28;20136;-61
2021/10/04 06:03:32;;;;;;;1.13;0.10;;;23.90;45.40;;;;;;5042274;28;20044;-61
2021/10/04 06:05:59;;;;;;;0.08;0.00;;;23.90;45.40;;;;;;5040454;28;20432;-61
2021/10/04 06:08:27;;;;;;;6.60;0.20;;;23.90;45.40;;;;;;5040558;28;20037;-61
2021/10/04 06:10:54;;;;;;;1.20;0.03;;;23.90;45.30;;;;;;5045653;28;20042;-61
2021/10/04 06:13:22;;;;;;;0.55;0.20;;;23.90;45.40;;;;;;5040059;28;20045;-61
2021/10/04 06:15:49;;;;;;;0.90;0.10;;;23.90;45.30;;;;;;5045137;28;20083;-61
2021/10/04 06:18:18;;;;;;;1.13;0.00;;;23.90;45.30;;;;;;5040556;28;20034;-61
2021/10/04 06:20:45;;;;;;;1.02;0.10;;;23.90;45.30;;;;;;5040683;28;20116;-60
2021/10/04 06:23:12;;;;;;;1.40;0.25;;;23.90;45.30;;;;;;5046972;28;20518;-60
2021/10/04 06:25:39;;;;;;;1.27;0.10;;;23.90;45.30;;;;;;5038352;28;20052;-60
2021/10/04 06:28:06;;;;;;;1.33;0.08;;;23.90;45.20;;;;;;5043827;28;20142;-60
2021/10/04 06:30:35;;;;;;;0.50;0.10;;;23.90;45.30;;;;;;5045118;28;20040;-60
2021/10/04 06:33:02;;;;;;;0.73;0.10;;;23.90;45.30;;;;;;5041759;28;20041;-61
2021/10/04 06:35:29;;;;;;;0.10;0.10;;;23.80;45.20;;;;;;5043037;28;20045;-61
2021/10/04 06:37:56;;;;;;;2.28;0.10;;;23.80;45.10;;;;;;5043854;28;20052;-60
2021/10/04 06:40:23;;;;;;;1.38;0.45;;;23.90;45.20;;;;;;5044142;28;20057;-60
2021/10/04 06:42:50;;;;;;;0.40;0.10;;;23.90;45.20;;;;;;5036753;28;20040;-60
2021/10/04 06:45:17;;;;;;;0.20;0.10;;;23.80;45.10;;;;;;5041905;28;20041;-60
2021/10/04 06:47:46;;;;;;;0.13;0.00;;;23.80;45.10;;;;;;5039961;28;20045;-60
2021/10/04 06:50:13;;;;;;;0.40;0.03;;;23.90;45.10;;;;;;5038528;28;20103;-59
2021/10/04 06:52:41;;;;;;;0.57;0.00;;;23.90;45.20;;;;;;5043085;28;20049;-60
2021/10/04 06:55:10;;;;;;;0.52;0.30;;;23.80;45.00;;;;;;5034623;28;20477;-60
2021/10/04 06:57:38;;;;;;;0.30;0.20;;;23.90;45.10;;;;;;5041967;28;20408;-62
2021/10/04 07:00:09;;;;;;;0.17;0.00;;;23.90;45.10;;;;;;5042870;28;20045;-61
2021/10/04 07:02:37;;;;;;;1.33;0.10;;;23.90;45.10;;;;;;5041892;28;20037;-61
2021/10/04 07:05:07;;;;;;;0.50;0.05;;;23.80;45.10;;;;;;5043582;28;20046;-62
2021/10/04 07:07:34;;;;;;;0.32;0.00;;;23.80;45.10;;;;;;5035563;28;20581;-61
2021/10/04 07:10:01;;;;;;;0.10;0.10;;;23.80;45.10;;;;;;5045322;28;20048;-63
2021/10/04 07:12:28;;;;;;;1.27;0.08;;;23.80;45.10;;;;;;5042724;28;20128;-62
2021/10/04 07:14:55;;;;;;;1.38;0.57;;;23.80;45.10;;;;;;5040326;28;20041;-62
2021/10/04 07:17:23;;;;;;;2.17;0.10;;;23.80;45.00;;;;;;5044599;28;20116;-62
2021/10/04 07:19:50;;;;;;;0.50;0.00;;;23.80;45.00;;;;;;5043762;28;20050;-62
2021/10/04 07:22:18;;;;;;;2.50;0.10;;;23.90;45.00;;;;;;5043031;28;20048;-64
2021/10/04 07:24:46;;;;;;;0.85;0.10;;;23.80;45.00;;;;;;5042909;28;20521;-62
2021/10/04 07:27:13;;;;;;;1.05;0.20;;;23.90;45.00;;;;;;5040779;28;20033;-63
2021/10/04 07:29:40;;;;;;;0.55;0.08;;;23.90;44.90;;;;;;5044618;28;20041;-62
2021/10/04 07:32:08;;;;;;;0.40;0.22;;;23.80;44.90;;;;;;5044436;28;20401;-62
2021/10/04 07:34:35;;;;;;;0.40;0.00;;;23.80;44.90;;;;;;5043611;28;20041;-60
2021/10/04 07:37:03;;;;;;;0.20;0.10;;;23.80;44.90;;;;;;5037789;28;20041;-63
2021/10/04 07:39:32;;;;;;;0.00;0.00;;;23.90;44.80;;;;;;5041225;28;20044;-63
2021/10/04 07:42:00;;;;;;;0.38;0.20;;;23.90;44.80;;;;;;5040386;28;20041;-64
2021/10/04 07:44:28;;;;;;;0.45;0.10;;;23.90;44.90;;;;;;5041047;28;20034;-62
2021/10/04 07:46:57;;;;;;;0.60;0.10;;;23.90;44.90;;;;;;5046604;28;20045;-62
2021/10/04 07:49:24;;;;;;;1.27;0.45;;;23.90;44.90;;;;;;5043148;28;20519;-56
2021/10/04 07:51:52;;;;;;;1.88;0.10;;;23.90;45.00;;;;;;5041421;28;20469;-56
2021/10/04 07:54:19;;;;;;;0.40;0.00;;;23.90;45.00;;;;;;5044446;28;20052;-55
2021/10/04 07:56:47;;;;;;;0.90;0.10;;;23.90;45.00;;;;;;5039531;28;20510;-45
2021/10/04 07:59:14;;;;;;;1.38;0.10;;;23.90;45.10;;;;;;5044198;28;20045;-49
2021/10/04 08:01:41;;;;;;;0.93;0.10;;;23.90;45.20;;;;;;5043856;28;20058;-43
2021/10/04 08:04:08;;;;;;;6.50;0.00;;;23.90;45.20;;;;;;5046439;28;20067;-44
2021/10/04 08:06:35;;;;;;;0.52;0.13;;;23.80;45.40;;;;;;5044347;28;20080;-47
2021/10/04 08:09:03;;;;;;;1.75;0.10;;;23.80;45.60;;;;;;5044574;28;20413;-49
2021/10/04 08:11:30;;;;;;;3.72;0.15;;;23.70;45.80;;;;;;5040816;28;20497;-53
2021/10/04 08:13:58;;;;;;;7.25;0.10;;;23.70;45.90;;;;;;5054464;28;20044;-58
2021/10/04 08:16:25;;;;;;;3.50;0.10;;;23.70;45.90;;;;;;5041383;28;20046;-47
2021/10/04 08:18:54;;;;;;;0.45;0.10;;;23.70;46.00;;;;;;5046056;28;20056;-47
2021/10/04 08:21:22;;;;;;;1.30;0.10;;;23.70;46.00;;;;;;5047682;28;20564;-47
2021/10/04 08:23:50;;;;;;;0.20;0.10;;;23.70;46.00;;;;;;5054699;28;20041;-45
2021/10/04 08:26:18;;;;;;;0.82;0.10;;;23.70;46.00;;;;;;5046792;28;20123;-47
2021/10/04 08:28:45;;;;;;;1.05;0.17;;;23.70;46.00;;;;;;5045006;28;20049;-46
2021/10/04 08:31:13;;;;;;;2.90;0.17;;;23.70;46.00;;;;;;5047643;28;20545;-46
2021/10/04 08:33:40;;;;;;;1.42;0.08;;;23.70;46.10;;;;;;5041262;28;20045;-47
2021/10/04 08:36:08;;;;;;;0.85;0.20;;;23.70;46.10;;;;;;5036352;28;20045;-46
2021/10/04 08:38:35;;;;;;;0.75;0.00;;;23.70;46.10;;;;;;5037144;28;20033;-48
2021/10/04 08:41:03;;;;;;;0.35;0.05;;;23.70;46.10;;;;;;5039184;28;20037;-47
2021/10/04 08:43:30;;;;;;;0.15;0.00;;;23.70;46.20;;;;;;5038160;28;20037;-52
2021/10/04 08:45:59;;;;;;;1.15;0.00;;;23.70;46.20;;;;;;5040708;28;20029;-48
2021/10/04 08:48:28;;;;;;;0.22;0.00;;;23.70;46.20;;;;;;5040282;28;20068;-50
2021/10/04 08:50:55;;;;;;;0.20;0.03;;;23.70;46.20;;;;;;5037897;28;20122;-47
2021/10/04 08:53:23;;;;;;;1.13;0.10;;;23.70;46.20;;;;;;5036388;28;20452;-48
2021/10/04 08:55:50;;;;;;;0.10;0.10;;;23.70;46.20;;;;;;5038112;28;20465;-49
2021/10/04 08:58:18;;;;;;;0.10;0.00;;;23.70;46.20;;;;;;5043131;28;20460;-51
2021/10/04 09:00:45;;;;;;;0.90;0.15;;;23.70;46.20;;;;;;5044045;28;20131;-52
2021/10/04 09:03:13;;;;;;;0.17;0.10;;;23.70;46.30;;;;;;5041152;28;20041;-52
2021/10/04 09:05:44;;;;;;;0.70;0.00;;;23.70;46.40;;;;;;5040636;28;20049;-46
2021/10/04 09:08:15;;;;;;;0.30;0.10;;;23.70;46.40;;;;;;5036983;28;20112;-47
2021/10/04 09:10:44;;;;;;;0.30;0.28;;;23.70;46.40;;;;;;5037921;28;20044;-49
2021/10/04 09:13:13;;;;;;;0.82;0.38;;;23.80;46.40;;;;;;5040624;28;20067;-48
2021/10/04 09:15:42;;;;;;;0.85;0.03;;;23.80;46.40;;;;;;5040712;28;20078;-46
2021/10/04 09:18:18;;;;;;;1.58;0.20;;;23.80;46.30;;;;;;5040760;28;20044;-47
2021/10/04 09:20:57;;;;;;;1.48;0.00;;;23.90;46.30;;;;;;5043602;28;20057;-50
2021/10/04 09:23:44;;;;;;;0.85;0.30;;;23.90;46.20;;;;;;5042177;28;20086;-48
2021/10/04 09:26:13;;;;;;;2.40;0.10;;;24.00;46.10;;;;;;5041424;28;20109;-51
2021/10/04 09:28:43;;;;;;;1.33;0.20;;;24.00;46.00;;;;;;5042090;28;20041;-54
2021/10/04 09:31:19;;;;;;;1.95;0.10;;;24.10;45.90;;;;;;5044429;28;20112;-47
2021/10/04 09:34:06;;;;;;;3.40;0.10;;;24.10;45.80;;;;;;5045593;28;20050;-47
2021/10/04 09:36:36;;;;;;;0.20;0.00;;;24.20;45.60;;;;;;5041341;28;20037;-48
2021/10/04 09:39:26;;;;;;;2.83;0.10;;;24.30;45.60;;;;;;5041187;28;20050;-49
2021/10/04 09:42:05;;;;;;;3.17;0.00;;;24.40;45.40;;;;;;5037640;28;20454;-48
2021/10/04 09:44:51;;;;;;;1.83;0.10;;;24.40;45.40;;;;;;5040971;28;20043;-47
2021/10/04 09:47:21;;;;;;;0.73;0.00;;;24.50;45.30;;;;;;5037332;28;20071;-48
2021/10/04 09:49:50;;;;;;;1.33;0.43;;;24.50;45.20;;;;;;5039168;28;20041;-47
2021/10/04 09:52:19;;;;;;;0.35;0.03;;;24.60;45.20;;;;;;5042057;28;20041;-46
2021/10/04 09:54:48;;;;;;;0.65;0.00;;;24.60;45.00;;;;;;5043457;28;20038;-48
2021/10/04 09:57:19;;;;;;;2.88;0.10;;;24.70;44.90;;;;;;5041803;28;20042;-47
2021/10/04 09:59:47;;;;;;;3.53;0.10;;;24.80;44.80;;;;;;5043841;28;20060;-48
2021/10/04 10:02:16;;;;;;;1.73;0.10;;;24.80;44.70;;;;;;5040981;28;20891;-54
2021/10/04 10:04:44;;;;;;;0.75;0.10;;;24.90;44.60;;;;;;5040164;28;20053;-49
2021/10/04 10:07:11;;;;;;;1.35;0.00;;;25.00;44.50;;;;;;5043313;28;20041;-52
2021/10/04 10:09:42;;;;;;;0.20;0.17;;;25.00;44.40;;;;;;5042893;28;20583;-49
2021/10/04 10:12:10;;;;;;;1.20;0.00;;;25.10;44.30;;;;;;5038124;28;20057;-47
2021/10/04 10:14:41;;;;;;;2.33;0.20;;;25.10;44.20;;;;;;5041169;28;20401;-48
2021/10/04 10:17:14;;;;;;;0.80;0.15;;;25.20;44.20;;;;;;5041981;28;20048;-52
2021/10/04 10:19:43;;;;;;;0.65;0.10;;;25.20;44.20;;;;;;5041278;28;20037;-53
2021/10/04 10:22:12;;;;;;;1.08;0.30;;;25.20;44.30;;;;;;5044640;28;20056;-53
2021/10/04 10:24:40;;;;;;;3.10;0.50;;;25.30;44.30;;;;;;5043513;28;20817;-51
2021/10/04 10:27:08;;;;;;;3.38;0.10;;;25.30;44.20;;;;;;5041376;28;20033;-50
2021/10/04 10:29:36;;;;;;;1.10;0.60;;;25.40;44.20;;;;;;5042433;28;20142;-50
2021/10/04 10:32:21;;;;;;;1.13;0.30;;;25.50;44.10;;;;;;5038839;28;20045;-47
2021/10/04 10:34:49;;;;;;;0.85;0.10;;;25.60;44.00;;;;;;5039206;28;20067;-48
2021/10/04 10:37:18;;;;;;;0.77;0.10;;;25.60;44.00;;;;;;5041132;28;20044;-50
2021/10/04 10:39:50;;;;;;;0.10;0.05;;;25.70;43.90;;;;;;5042483;28;20041;-50
2021/10/04 10:42:20;;;;;;;1.95;0.10;;;25.70;43.80;;;;;;5040039;28;20033;-47
2021/10/04 10:45:17;;;;;;;1.52;0.10;;;25.80;43.60;;;;;;5041715;28;20064;-47
2021/10/04 10:48:01;;;;;;;0.35;0.10;;;25.90;43.40;;;;;;5036138;28;20059;-50
2021/10/04 10:50:34;;;;;;;1.25;0.10;;;26.00;43.40;;;;;;5040614;28;20405;-47
2021/10/04 10:53:13;;;;;;;1.45;0.15;;;26.10;43.30;;;;;;5037442;28;20117;-48
2021/10/04 10:55:43;;;;;;;1.52;0.20;;;26.20;43.00;;;;;;5039556;28;20043;-51
2021/10/04 10:58:12;;;;;;;2.72;0.30;;;26.30;43.00;;;;;;5042416;28;20121;-49
2021/10/04 11:00:42;;;;;;;1.85;0.10;;;26.40;42.70;;;;;;5041474;28;20509;-48
2021/10/04 11:03:13;;;;;;;0.73;0.05;;;26.40;42.60;;;;;;5039096;28;20118;-51
2021/10/04 11:05:51;;;;;;;0.52;0.20;;;26.50;42.50;;;;;;5041084;28;20033;-46
2021/10/04 11:08:20;;;;;;;0.60;0.20;;;26.50;42.40;;;;;;5038007;28;20119;-41
2021/10/04 11:11:11;;;;;;;0.10;0.00;;;26.60;42.40;;;;;;5036629;28;20040;-43
2021/10/04 11:13:40;;;;;;;0.88;0.10;;;26.70;42.20;;;;;;5038907;28;20055;-43
2021/10/04 11:16:34;;;;;;;2.78;0.00;;;26.60;41.90;;;;;;5041315;28;20040;-48
2021/10/04 11:19:02;;;;;;;0.73;0.10;;;26.60;41.80;;;;;;5042276;28;20390;-47
2021/10/04 11:21:30;;;;;;;2.78;0.85;;;26.50;41.90;;;;;;5041452;28;20040;-50
2021/10/04 11:24:03;;;;;;;8.13;0.00;;;26.40;41.90;;;;;;5042210;28;20037;-48
2021/10/04 11:26:35;;;;;;;1.58;0.20;;;26.40;42.00;;;;;;5042335;28;20120;-50
2021/10/04 11:29:03;;;;;;;1.23;0.13;;;26.30;42.10;;;;;;5044896;28;20037;-50
2021/10/04 11:31:32;;;;;;;1.20;0.10;;;26.30;42.30;;;;;;5036160;28;20418;-50
2021/10/04 11:34:00;;;;;;;1.95;0.10;;;26.20;42.30;;;;;;5035608;28;20059;-50
2021/10/04 11:36:30;;;;;;;5.45;0.25;;;26.10;42.20;;;;;;5042879;28;20417;-50
2021/10/04 11:38:59;;;;;;;13.00;1.27;;;26.10;42.30;;;;;;5037263;28;20057;-51
2021/10/04 11:41:28;;;;;;;11.98;0.57;;;26.00;43.20;;;;;;5030909;28;20049;-49
2021/10/04 11:43:59;;;;;;;6.55;0.30;;;26.00;43.50;;;;;;5031859;28;20053;-50
2021/10/04 11:46:29;;;;;;;14.82;0.20;;;25.90;44.00;;;;;;5042953;28;20044;-47
2021/10/04 11:49:05;;;;;;;8.98;0.57;;;25.80;44.90;;;;;;5034477;28;20047;-48
2021/10/04 11:51:34;;;;;;;10.45;1.00;;;25.80;44.70;;;;;;5038148;28;20638;-46
2021/10/04 11:54:02;;;;;;;4.95;0.57;;;25.70;44.70;;;;;;5035757;28;20099;-46
2021/10/04 11:56:30;;;;;;;8.63;1.08;;;25.70;45.00;;;;;;5032987;28;20040;-47
2021/10/04 11:58:59;;;;;;;6.40;0.40;;;25.70;45.50;;;;;;5029413;28;20091;-48
2021/10/04 12:01:31;;;;;;;2.22;0.17;;;25.70;45.60;;;;;;5030965;28;20095;-48
2021/10/04 12:04:00;;;;;;;4.65;0.20;;;25.60;45.80;;;;;;5033078;28;20099;-48
2021/10/04 12:06:29;;;;;;;2.83;0.22;;;25.60;46.00;;;;;;5039043;28;20052;-46
2021/10/04 12:08:57;;;;;;;2.08;0.28;;;25.60;46.10;;;;;;5039453;28;20457;-47
2021/10/04 12:11:25;;;;;;;4.30;0.57;;;25.50;46.10;;;;;;5030707;28;20045;-48
2021/10/04 12:13:52;;;;;;;8.10;0.20;;;25.50;46.20;;;;;;5042130;28;20474;-47
2021/10/04 12:16:22;;;;;;;3.70;0.20;;;25.50;46.30;;;;;;5034152;28;20132;-47
2021/10/04 12:18:51;;;;;;;1.65;0.20;;;25.40;46.20;;;;;;5042247;28;20417;-46
2021/10/04 12:21:20;;;;;;;2.45;0.20;;;25.40;46.20;;;;;;5033865;28;20080;-48
2021/10/04 12:24:09;;;;;;;3.08;0.10;;;25.40;46.20;;;;;;5037612;28;20140;-46
2021/10/04 12:26:48;;;;;;;3.65;0.80;;;25.30;46.10;;;;;;5040122;28;20045;-48
2021/10/04 12:29:31;;;;;;;4.13;0.10;;;25.30;46.30;;;;;;5043717;28;20038;-48
2021/10/04 12:32:19;;;;;;;3.10;0.52;;;25.30;46.30;;;;;;5041005;28;20060;-46
2021/10/04 12:34:58;;;;;;;4.18;0.77;;;25.30;46.30;;;;;;5045089;28;20073;-47
2021/10/04 12:37:27;;;;;;;2.22;0.10;;;25.20;46.30;;;;;;5036112;28;20039;-46
2021/10/04 12:39:54;;;;;;;1.17;0.10;;;25.10;46.30;;;;;;5043380;28;20037;-46
2021/10/04 12:42:21;;;;;;;1.17;0.43;;;25.10;46.30;;;;;;5035421;28;20521;-46
2021/10/04 12:44:49;;;;;;;0.75;0.10;;;25.10;46.30;;;;;;5032376;28;20056;-47
2021/10/04 12:47:18;;;;;;;0.63;0.08;;;25.10;46.30;;;;;;5030897;28;20037;-46
2021/10/04 12:49:54;;;;;;;1.17;0.50;;;25.10;46.20;;;;;;5029472;28;20041;-47
2021/10/04 12:52:23;;;;;;;0.60;0.10;;;25.10;46.20;;;;;;5034343;28;20045;-50
2021/10/04 12:54:53;;;;;;;1.67;0.20;;;25.00;46.20;;;;;;5045010;28;20529;-46